Terminal Aerodrome Forecast
Issued by NWS Los Angeles, CA

Home | Current Version | Previous Version | Text Only | Print | Product List | Glossary On
Versions: 1 2 3 4 5 6 7 8 9 10 11 12 13 14 15 16 17 18 19 20 21 22 23 24 25 26 27 28 29 30 31 32 33 34 35 36
188
FTUS46 KLOX 262358
TAFSMX
TAF
KSMX 262358Z 2700/2724 30010KT P6SM SKC
     FM270300 30008KT P6SM SCT007
     FM270400 30006KT 6SM BR OVC006
     FM270600 VRB03KT 1 1/2SM BR OVC003
     FM270800 00000KT 1/2SM FG VV002
     FM271430 VRB03KT 1 1/2SM BR OVC003
     FM271600 31005KT 5SM BR BKN007
     FM271730 31009KT P6SM SKC=

USA.gov is the U.S. government's official web portal to all federal, state and local government web resources and services.